Time;durP1;ratioP1;P1;durP2;ratioP2;P2;SDS_P1;SDS_P2;PMS_P1;PMS_P2;Temp;Humidity;BMP_temperature;BMP_pressure;BME280_temperature;BME280_humidity;BME280_pressure;Samples;Min_cycle;Max_cycle;Signal;HPM_P1;HPM_P2
2022/03/23 00:02:15;;;;;;;22.88;16.73;;;10.70;90.20;;;;;;5046891;28;20025;-72
2022/03/23 00:04:40;;;;;;;25.60;17.83;;;10.80;90.50;;;;;;5061388;28;20483;-72
2022/03/23 00:07:06;;;;;;;20.80;16.58;;;10.80;89.10;;;;;;5046423;28;20082;-71
2022/03/23 00:09:32;;;;;;;23.30;17.67;;;11.30;85.90;;;;;;5051036;28;20031;-71
2022/03/23 00:11:58;;;;;;;22.02;17.20;;;11.40;85.60;;;;;;5046374;28;20107;-71
2022/03/23 00:14:24;;;;;;;25.98;17.77;;;11.30;85.80;;;;;;5048148;28;20029;-71
2022/03/23 00:16:50;;;;;;;18.05;15.57;;;11.10;85.50;;;;;;5049163;28;20051;-70
2022/03/23 00:19:18;;;;;;;18.20;16.25;;;11.00;85.30;;;;;;5040901;28;20438;-71
2022/03/23 00:21:44;;;;;;;26.45;19.05;;;10.90;85.30;;;;;;5048911;28;20033;-69
2022/03/23 00:24:10;;;;;;;23.60;20.08;;;10.90;85.00;;;;;;5046155;28;20245;-71
2022/03/23 00:26:36;;;;;;;26.20;17.45;;;10.80;85.20;;;;;;5047015;28;20432;-71
2022/03/23 00:29:04;;;;;;;26.08;19.70;;;10.80;85.40;;;;;;5047897;28;20037;-71
2022/03/23 00:31:30;;;;;;;22.80;17.85;;;10.70;87.60;;;;;;5047577;28;20021;-70
2022/03/23 00:33:56;;;;;;;21.08;17.02;;;10.70;89.50;;;;;;5048509;28;20539;-72
2022/03/23 00:36:22;;;;;;;22.02;16.27;;;10.80;89.60;;;;;;5047995;28;20445;-73
2022/03/23 00:38:50;;;;;;;32.30;17.33;;;10.90;89.40;;;;;;5048406;28;20020;-70
2022/03/23 00:41:15;;;;;;;22.30;16.48;;;11.00;86.80;;;;;;5048887;28;20021;-71
2022/03/23 00:43:41;;;;;;;24.85;16.15;;;10.90;87.70;;;;;;5048047;28;20108;-71
2022/03/23 00:46:07;;;;;;;23.60;17.13;;;10.80;90.00;;;;;;5044711;28;20108;-71
2022/03/23 00:48:32;;;;;;;24.83;16.70;;;10.80;89.50;;;;;;5047071;28;20375;-71
2022/03/23 00:50:58;;;;;;;20.83;15.63;;;10.80;88.20;;;;;;5048039;28;20128;-71
2022/03/23 00:53:24;;;;;;;21.00;14.75;;;10.80;90.30;;;;;;5047731;28;20017;-70
2022/03/23 00:55:50;;;;;;;23.00;15.82;;;11.00;87.90;;;;;;5046929;28;20124;-70
2022/03/23 00:58:16;;;;;;;17.80;15.73;;;11.20;87.20;;;;;;5046790;28;20028;-71
2022/03/23 01:00:43;;;;;;;22.25;15.77;;;11.30;85.60;;;;;;5060000;28;20474;-70
2022/03/23 01:03:10;;;;;;;19.58;15.75;;;11.40;87.30;;;;;;5051019;28;20416;-71
2022/03/23 01:05:36;;;;;;;22.40;15.52;;;11.30;86.60;;;;;;5049515;28;20479;-71
2022/03/23 01:08:02;;;;;;;25.17;17.23;;;11.20;86.40;;;;;;5049217;28;20048;-71
2022/03/23 01:10:29;;;;;;;17.58;15.07;;;11.20;86.60;;;;;;5046051;28;20467;-71
2022/03/23 01:12:55;;;;;;;21.48;14.73;;;11.20;86.20;;;;;;5047292;28;20025;-70
2022/03/23 01:15:22;;;;;;;22.70;16.02;;;11.40;84.60;;;;;;5046029;28;20471;-71
2022/03/23 01:17:49;;;;;;;24.48;14.82;;;11.60;82.90;;;;;;5049015;28;20191;-71
2022/03/23 01:20:17;;;;;;;23.15;15.23;;;11.80;82.80;;;;;;5046361;28;20035;-71
2022/03/23 01:22:44;;;;;;;17.90;14.88;;;11.80;82.80;;;;;;5048486;28;20044;-70
2022/03/23 01:25:11;;;;;;;20.40;14.85;;;11.80;82.30;;;;;;5046303;28;20159;-69
2022/03/23 01:27:38;;;;;;;22.33;15.85;;;11.80;82.00;;;;;;5047051;28;20062;-73
2022/03/23 01:30:06;;;;;;;21.90;15.98;;;11.90;82.20;;;;;;5047113;28;20033;-69
2022/03/23 01:32:33;;;;;;;19.58;15.98;;;11.80;82.00;;;;;;5045207;28;20098;-70
2022/03/23 01:34:58;;;;;;;16.80;15.00;;;11.80;82.20;;;;;;5043947;28;20032;-70
2022/03/23 01:37:24;;;;;;;22.10;14.73;;;11.70;82.20;;;;;;5046504;28;20017;-71
2022/03/23 01:39:50;;;;;;;23.75;16.30;;;11.70;82.20;;;;;;5045176;28;20051;-69
2022/03/23 01:42:16;;;;;;;19.10;13.73;;;11.60;82.20;;;;;;5046878;28;20044;-71
2022/03/23 01:44:42;;;;;;;18.65;15.30;;;11.60;82.00;;;;;;5044884;28;20395;-72
2022/03/23 01:47:16;;;;;;;16.33;14.10;;;11.60;82.10;;;;;;5047385;28;20107;-71
2022/03/23 01:49:44;;;;;;;18.63;14.23;;;11.60;82.10;;;;;;5045615;28;20135;-71
2022/03/23 01:52:12;;;;;;;18.08;14.35;;;11.60;82.20;;;;;;5046129;28;20106;-71
2022/03/23 01:54:39;;;;;;;18.13;15.43;;;11.50;82.30;;;;;;5046000;28;20086;-72
2022/03/23 01:57:07;;;;;;;17.15;15.38;;;11.40;82.60;;;;;;5046375;28;20040;-70
2022/03/23 01:59:34;;;;;;;20.58;14.70;;;11.40;82.80;;;;;;5046613;28;20071;-71
2022/03/23 02:02:00;;;;;;;21.10;14.88;;;11.30;83.00;;;;;;5046641;28;20105;-71
2022/03/23 02:04:26;;;;;;;23.77;14.02;;;11.20;82.70;;;;;;5043036;28;20104;-72
2022/03/23 02:06:52;;;;;;;19.85;14.93;;;11.30;83.00;;;;;;5046223;28;20049;-70
2022/03/23 02:09:19;;;;;;;21.73;14.43;;;11.30;83.00;;;;;;5064632;28;20036;-71
2022/03/23 02:11:46;;;;;;;19.45;14.52;;;11.30;82.20;;;;;;5049569;28;20479;-71
2022/03/23 02:14:13;;;;;;;20.73;15.55;;;11.40;82.30;;;;;;5051746;28;20021;-72
2022/03/23 02:16:43;;;;;;;18.52;14.00;;;11.50;81.50;;;;;;5043926;28;20104;-72
2022/03/23 02:19:10;;;;;;;21.67;14.52;;;11.70;81.20;;;;;;5051009;28;20029;-71
2022/03/23 02:21:37;;;;;;;18.42;14.65;;;11.90;80.70;;;;;;5047350;28;20419;-69
2022/03/23 02:24:04;;;;;;;24.20;16.15;;;11.80;80.60;;;;;;5048894;28;20025;-71
2022/03/23 02:26:31;;;;;;;23.92;15.25;;;11.70;81.90;;;;;;5050524;28;20119;-71
2022/03/23 02:28:59;;;;;;;22.85;15.32;;;11.70;81.00;;;;;;5043984;28;20445;-70
2022/03/23 02:31:25;;;;;;;17.08;15.30;;;11.60;81.60;;;;;;5050026;28;20021;-71
2022/03/23 02:33:52;;;;;;;18.50;14.18;;;11.50;81.60;;;;;;5051152;28;20025;-71
2022/03/23 02:36:18;;;;;;;22.92;17.05;;;11.50;81.90;;;;;;5049245;28;20021;-69
2022/03/23 02:38:44;;;;;;;20.45;15.35;;;11.50;82.10;;;;;;5049454;28;20116;-72
2022/03/23 02:41:10;;;;;;;18.67;14.48;;;11.40;82.30;;;;;;5049753;28;20104;-71
2022/03/23 02:43:36;;;;;;;20.17;14.43;;;11.30;82.30;;;;;;5052071;28;20478;-71
2022/03/23 02:46:02;;;;;;;17.02;14.38;;;11.30;82.30;;;;;;5045039;28;20039;-69
2022/03/23 02:48:29;;;;;;;19.13;15.10;;;11.40;82.00;;;;;;5047194;28;20033;-71
2022/03/23 02:50:55;;;;;;;18.67;13.88;;;11.30;81.80;;;;;;5044216;28;20037;-72
2022/03/23 03:02:21;;;;;;;21.65;14.15;;;11.40;81.90;;;;;;5045569;28;20032;-70
2022/03/23 03:04:49;;;;;;;23.88;16.02;;;11.40;81.70;;;;;;5046842;28;20459;-71
2022/03/23 03:07:15;;;;;;;17.45;14.48;;;11.40;81.70;;;;;;5049116;28;20422;-71
2022/03/23 03:09:40;;;;;;;21.33;14.88;;;11.40;81.70;;;;;;5048936;28;20029;-70
2022/03/23 03:12:07;;;;;;;21.55;15.10;;;11.50;81.60;;;;;;5049320;28;20031;-70
2022/03/23 03:14:34;;;;;;;16.80;14.57;;;11.40;81.30;;;;;;5045900;28;20041;-71
2022/03/23 03:17:00;;;;;;;16.98;14.50;;;11.40;81.60;;;;;;5049269;28;20044;-70
2022/03/23 03:19:25;;;;;;;18.83;14.20;;;11.40;81.70;;;;;;5043926;28;20503;-70
2022/03/23 03:21:51;;;;;;;19.67;14.52;;;11.30;81.80;;;;;;5047623;28;20032;-71
2022/03/23 03:24:17;;;;;;;20.63;14.80;;;11.30;81.80;;;;;;5048861;28;20061;-71
2022/03/23 03:26:44;;;;;;;17.70;14.15;;;11.30;82.20;;;;;;5042987;28;20025;-72
2022/03/23 03:29:10;;;;;;;19.65;13.48;;;11.30;81.90;;;;;;5043153;28;20029;-68
2022/03/23 03:31:35;;;;;;;18.48;15.20;;;11.30;81.70;;;;;;5049280;28;20043;-71
2022/03/23 03:34:01;;;;;;;24.00;14.38;;;11.30;82.00;;;;;;5049494;28;20020;-70
2022/03/23 03:36:27;;;;;;;17.90;14.70;;;11.30;81.60;;;;;;5048437;28;20021;-69
2022/03/23 03:38:54;;;;;;;18.67;15.63;;;11.30;81.70;;;;;;5047145;28;20394;-72
2022/03/23 03:41:20;;;;;;;25.50;14.15;;;11.30;81.70;;;;;;5047761;28;20039;-71
2022/03/23 03:43:46;;;;;;;18.95;15.40;;;11.30;81.50;;;;;;5050290;28;20033;-72
2022/03/23 03:46:12;;;;;;;17.98;14.23;;;11.30;81.50;;;;;;5048200;28;20044;-72
2022/03/23 03:48:40;;;;;;;17.30;15.07;;;11.20;81.40;;;;;;5045323;28;20391;-71
2022/03/23 03:51:06;;;;;;;17.20;14.95;;;11.20;81.60;;;;;;5049112;28;20047;-71
2022/03/23 03:53:33;;;;;;;21.50;15.98;;;11.10;81.80;;;;;;5047459;28;20070;-71
2022/03/23 03:56:00;;;;;;;21.33;14.68;;;11.10;82.00;;;;;;5044786;28;20017;-68
2022/03/23 03:58:26;;;;;;;16.00;13.95;;;11.00;82.20;;;;;;5047637;28;20055;-70
2022/03/23 04:00:52;;;;;;;17.55;14.63;;;10.90;83.00;;;;;;5048663;28;20044;-71
2022/03/23 04:03:18;;;;;;;17.35;15.02;;;10.60;83.40;;;;;;5048616;28;20391;-71
2022/03/23 04:05:44;;;;;;;19.90;15.15;;;10.50;83.80;;;;;;5048799;28;20021;-71
2022/03/23 04:08:10;;;;;;;18.33;15.25;;;10.30;84.40;;;;;;5047008;28;20024;-71
2022/03/23 04:10:36;;;;;;;21.10;14.85;;;10.50;83.60;;;;;;5050112;28;20162;-69
2022/03/23 04:13:03;;;;;;;23.52;15.27;;;10.80;82.50;;;;;;5048042;28;20021;-70
2022/03/23 04:15:29;;;;;;;18.77;15.20;;;11.00;82.20;;;;;;5047294;28;20025;-69
2022/03/23 04:17:56;;;;;;;23.33;16.20;;;11.00;82.10;;;;;;5042384;28;20021;-70
2022/03/23 04:20:23;;;;;;;20.42;14.68;;;11.20;81.90;;;;;;5050858;28;20119;-71
2022/03/23 04:22:55;;;;;;;16.20;14.48;;;11.00;82.20;;;;;;5054698;28;20025;-72
2022/03/23 04:25:22;;;;;;;17.92;14.35;;;10.90;82.80;;;;;;5055873;28;20055;-73
2022/03/23 04:27:51;;;;;;;24.92;16.25;;;10.60;83.30;;;;;;5048194;28;20039;-69
2022/03/23 04:30:19;;;;;;;19.48;14.40;;;10.60;83.20;;;;;;5046821;28;20025;-69
2022/03/23 04:32:47;;;;;;;21.13;15.75;;;11.00;82.30;;;;;;5045910;28;20047;-70
2022/03/23 04:35:13;;;;;;;15.75;13.27;;;11.10;81.70;;;;;;5048315;28;20551;-71
2022/03/23 04:37:40;;;;;;;26.92;16.75;;;11.30;81.40;;;;;;5049043;28;20063;-72
2022/03/23 04:40:07;;;;;;;26.10;14.40;;;11.20;81.40;;;;;;5049133;28;20024;-70
2022/03/23 04:42:38;;;;;;;17.55;15.10;;;11.20;81.30;;;;;;5044221;28;20025;-73
2022/03/23 04:45:06;;;;;;;19.98;15.13;;;11.20;81.40;;;;;;5040111;28;20434;-70
2022/03/23 04:47:36;;;;;;;24.20;15.73;;;11.20;81.20;;;;;;5040436;28;20507;-70
2022/03/23 04:50:05;;;;;;;19.63;15.35;;;11.30;81.30;;;;;;5042408;28;20556;-69
2022/03/23 04:52:31;;;;;;;18.17;15.13;;;11.20;81.20;;;;;;5043376;28;20037;-69
2022/03/23 04:54:56;;;;;;;20.63;15.52;;;11.20;81.40;;;;;;5049511;28;20076;-70
2022/03/23 04:57:27;;;;;;;16.60;14.68;;;11.10;81.30;;;;;;5049668;28;20029;-73
2022/03/23 04:59:53;;;;;;;14.73;13.15;;;11.20;81.40;;;;;;5047660;28;20128;-70
2022/03/23 05:02:19;;;;;;;17.88;14.30;;;11.20;81.00;;;;;;5048187;28;20025;-69
2022/03/23 05:04:45;;;;;;;22.92;14.20;;;11.20;80.90;;;;;;5045451;28;20029;-71
2022/03/23 05:07:12;;;;;;;20.85;15.45;;;11.20;81.00;;;;;;5046609;28;20032;-70
2022/03/23 05:09:47;;;;;;;18.60;15.07;;;11.30;80.90;;;;;;5045842;28;20025;-72
2022/03/23 05:12:13;;;;;;;20.38;14.15;;;11.30;80.70;;;;;;5046844;28;20020;-70
2022/03/23 05:14:39;;;;;;;18.92;14.30;;;11.30;80.50;;;;;;5047140;28;20021;-72
2022/03/23 05:17:05;;;;;;;24.55;17.85;;;11.40;80.60;;;;;;5047565;28;20026;-70
2022/03/23 05:19:31;;;;;;;22.27;13.18;;;11.40;80.50;;;;;;5046902;28;20041;-71
2022/03/23 05:21:57;;;;;;;17.15;11.05;;;11.40;80.10;;;;;;5046193;28;20033;-71
2022/03/23 05:24:23;;;;;;;19.67;15.13;;;11.40;80.50;;;;;;5048623;28;20033;-70
2022/03/23 05:26:49;;;;;;;18.58;13.95;;;11.30;81.00;;;;;;5047196;28;20037;-71
2022/03/23 05:29:15;;;;;;;14.07;12.52;;;11.20;81.10;;;;;;5048678;28;20121;-70
2022/03/23 05:31:40;;;;;;;23.50;16.55;;;11.20;81.20;;;;;;5045121;28;20048;-68
2022/03/23 05:34:06;;;;;;;19.88;13.70;;;11.20;81.20;;;;;;5047270;28;20043;-70
2022/03/23 05:36:32;;;;;;;18.60;14.48;;;11.20;81.50;;;;;;5048826;28;20024;-71
2022/03/23 05:38:58;;;;;;;14.52;12.73;;;11.10;81.60;;;;;;5046616;28;20021;-70
2022/03/23 05:41:26;;;;;;;26.58;13.68;;;11.20;81.70;;;;;;5047132;28;20024;-71
2022/03/23 05:43:52;;;;;;;17.77;13.45;;;11.10;81.90;;;;;;5050679;28;20025;-71
2022/03/23 05:46:18;;;;;;;21.30;13.88;;;11.10;82.30;;;;;;5050497;28;20039;-71
2022/03/23 05:48:44;;;;;;;20.17;14.25;;;11.10;82.10;;;;;;5050554;28;20021;-71
2022/03/23 05:51:10;;;;;;;14.57;12.80;;;11.10;82.30;;;;;;5049850;28;20029;-70
2022/03/23 05:53:36;;;;;;;16.38;11.85;;;11.10;82.10;;;;;;5050813;28;20036;-71
2022/03/23 05:56:06;;;;;;;17.88;14.50;;;11.10;82.20;;;;;;5048343;28;20025;-70
2022/03/23 05:58:31;;;;;;;17.90;14.40;;;11.20;82.40;;;;;;5051944;28;20525;-71
2022/03/23 06:00:57;;;;;;;17.23;14.93;;;11.20;82.50;;;;;;5046950;28;20029;-71
2022/03/23 06:03:23;;;;;;;24.50;14.95;;;11.20;82.30;;;;;;5047806;28;20021;-70
2022/03/23 06:05:49;;;;;;;18.13;14.05;;;11.20;82.90;;;;;;5048666;28;20028;-71
2022/03/23 06:08:14;;;;;;;22.98;15.60;;;11.30;83.10;;;;;;5052754;28;20092;-70
2022/03/23 06:10:40;;;;;;;16.70;13.82;;;11.30;82.70;;;;;;5047588;28;20048;-70
2022/03/23 06:13:06;;;;;;;17.23;13.27;;;11.40;82.80;;;;;;5052277;28;20047;-70
2022/03/23 06:15:32;;;;;;;19.73;14.63;;;11.40;82.70;;;;;;5050902;28;20020;-71
2022/03/23 06:17:58;;;;;;;15.93;14.27;;;11.50;83.00;;;;;;5049334;28;20025;-72
2022/03/23 06:20:23;;;;;;;19.88;15.50;;;11.50;82.20;;;;;;5048669;28;20509;-73
2022/03/23 06:22:49;;;;;;;17.92;13.75;;;11.60;82.40;;;;;;5052476;28;20108;-70
2022/03/23 06:25:15;;;;;;;19.88;13.45;;;11.70;82.50;;;;;;5042214;28;20049;-69
2022/03/23 06:27:41;;;;;;;17.92;15.48;;;11.80;82.40;;;;;;5031699;28;20025;-70
2022/03/23 06:30:08;;;;;;;16.60;13.63;;;11.90;82.30;;;;;;5031293;28;20471;-72
2022/03/23 06:32:34;;;;;;;14.95;12.48;;;12.00;82.00;;;;;;5033385;28;20142;-70
2022/03/23 06:35:03;;;;;;;14.68;12.25;;;12.10;81.40;;;;;;5031896;28;20104;-69
2022/03/23 06:37:30;;;;;;;22.60;14.77;;;12.30;81.20;;;;;;5033963;28;20033;-69
2022/03/23 06:39:57;;;;;;;18.52;14.13;;;12.40;81.10;;;;;;5044592;28;20033;-71
2022/03/23 06:42:23;;;;;;;15.93;13.02;;;12.40;81.40;;;;;;5047902;28;20116;-72
2022/03/23 06:44:49;;;;;;;19.10;14.05;;;12.40;81.20;;;;;;5053398;28;20028;-71
2022/03/23 06:47:15;;;;;;;18.08;12.10;;;12.60;81.60;;;;;;5051509;28;20025;-71
2022/03/23 06:49:41;;;;;;;18.10;14.38;;;12.60;82.00;;;;;;5050453;28;20029;-71
2022/03/23 06:52:07;;;;;;;17.90;12.95;;;12.60;82.00;;;;;;5046656;28;20077;-71
2022/03/23 06:54:33;;;;;;;17.55;14.52;;;12.60;81.40;;;;;;5040474;28;20024;-70
2022/03/23 06:56:59;;;;;;;18.73;12.52;;;12.70;80.50;;;;;;5037943;28;20026;-74
2022/03/23 06:59:25;;;;;;;15.80;12.20;;;12.90;80.40;;;;;;5040108;28;20044;-71
2022/03/23 07:01:51;;;;;;;14.32;12.13;;;13.00;79.90;;;;;;5050569;28;20025;-71
2022/03/23 07:04:17;;;;;;;17.60;13.02;;;13.30;79.20;;;;;;5050201;28;20036;-70
2022/03/23 07:06:43;;;;;;;18.58;13.00;;;13.30;79.60;;;;;;5047006;28;20455;-70
2022/03/23 07:11:53;;;;;;;15.80;13.77;;;13.40;80.70;;;;;;5051251;28;20036;-71
2022/03/23 07:14:18;;;;;;;15.23;11.75;;;13.50;79.20;;;;;;5052628;28;20483;-71
2022/03/23 07:16:44;;;;;;;24.20;13.30;;;13.90;79.50;;;;;;5050037;28;20098;-71
2022/03/23 07:19:10;;;;;;;14.23;12.82;;;14.00;79.60;;;;;;5049749;28;20152;-71
2022/03/23 07:21:36;;;;;;;14.43;11.77;;;14.10;78.00;;;;;;5051810;28;20028;-71
2022/03/23 07:24:02;;;;;;;20.25;13.70;;;14.20;78.80;;;;;;5052244;28;20017;-71
2022/03/23 07:26:29;;;;;;;29.25;18.38;;;14.20;79.20;;;;;;5043374;28;20024;-69
2022/03/23 07:28:54;;;;;;;20.70;12.75;;;14.20;79.50;;;;;;5041110;28;20056;-70
2022/03/23 07:31:20;;;;;;;18.38;13.07;;;14.20;79.10;;;;;;5047441;28;21082;-69
2022/03/23 07:33:46;;;;;;;25.60;13.02;;;14.20;79.10;;;;;;5050507;28;20119;-71
2022/03/23 07:36:15;;;;;;;28.80;13.15;;;14.30;79.00;;;;;;5048036;28;20028;-71
2022/03/23 07:38:40;;;;;;;19.30;12.70;;;14.40;80.10;;;;;;5044322;28;20029;-70
2022/03/23 07:41:06;;;;;;;18.88;12.23;;;14.50;80.20;;;;;;5049633;28;20549;-71
2022/03/23 07:43:32;;;;;;;16.08;11.80;;;14.60;78.60;;;;;;5051342;28;20025;-72
2022/03/23 07:45:58;;;;;;;23.50;13.27;;;14.60;78.60;;;;;;5050375;28;20108;-70
2022/03/23 07:48:24;;;;;;;16.08;11.57;;;14.70;79.50;;;;;;5041949;28;20107;-70
2022/03/23 07:50:51;;;;;;;17.85;11.82;;;14.90;80.00;;;;;;5051760;28;20108;-72
2022/03/23 07:53:17;;;;;;;14.70;11.95;;;15.00;78.20;;;;;;5051944;28;20025;-71
2022/03/23 07:55:43;;;;;;;16.33;13.18;;;15.10;76.60;;;;;;5051028;28;20321;-66
2022/03/23 07:58:09;;;;;;;18.42;11.70;;;15.40;74.20;;;;;;5046410;28;20017;-69
2022/03/23 08:00:35;;;;;;;16.63;11.30;;;15.70;74.20;;;;;;5030030;28;20029;-69
2022/03/23 08:03:01;;;;;;;11.93;10.82;;;15.80;76.90;;;;;;5030640;28;20022;-69
2022/03/23 08:05:27;;;;;;;15.27;11.18;;;15.80;81.80;;;;;;5030869;28;20029;-68
2022/03/23 08:07:52;;;;;;;11.38;10.20;;;15.90;80.00;;;;;;5043909;28;20041;-69
2022/03/23 08:10:18;;;;;;;19.05;12.35;;;16.00;75.40;;;;;;5048735;28;20025;-67
2022/03/23 08:12:44;;;;;;;14.93;10.77;;;16.10;77.80;;;;;;5049567;28;20039;-69
2022/03/23 08:15:10;;;;;;;16.73;11.93;;;16.20;74.60;;;;;;5051339;28;20021;-67
2022/03/23 08:17:38;;;;;;;13.43;11.10;;;16.30;74.50;;;;;;5045878;28;20057;-68
2022/03/23 08:22:59;;;;;;;16.40;11.48;;;16.40;73.70;;;;;;5044565;28;20074;-69
2022/03/23 08:25:25;;;;;;;13.02;11.35;;;16.40;75.30;;;;;;5038917;28;20025;-69
2022/03/23 08:27:51;;;;;;;15.88;11.07;;;16.40;73.70;;;;;;5047607;28;20029;-70
2022/03/23 08:30:17;;;;;;;13.70;11.20;;;16.50;73.80;;;;;;5055328;28;20036;-68
2022/03/23 08:32:43;;;;;;;18.95;11.25;;;16.80;71.70;;;;;;5054491;28;20021;-69
2022/03/23 08:35:09;;;;;;;10.82;9.50;;;16.80;72.30;;;;;;5045709;28;20021;-67
2022/03/23 08:37:36;;;;;;;17.70;10.88;;;16.80;71.60;;;;;;5043385;28;20123;-68
2022/03/23 08:40:02;;;;;;;11.38;10.25;;;16.80;72.30;;;;;;5049562;28;20028;-67
2022/03/23 08:42:28;;;;;;;12.43;11.05;;;16.90;72.00;;;;;;5043062;28;20033;-67
2022/03/23 08:44:53;;;;;;;13.15;10.68;;;16.90;74.00;;;;;;5049623;28;20254;-64
2022/03/23 08:47:19;;;;;;;12.43;11.23;;;17.00;71.80;;;;;;5041863;28;20032;-65
2022/03/23 08:49:45;;;;;;;13.63;11.30;;;17.00;71.00;;;;;;5049268;28;20033;-64
2022/03/23 08:52:11;;;;;;;16.35;11.27;;;17.20;72.00;;;;;;5049818;28;20029;-64
2022/03/23 08:54:37;;;;;;;11.80;10.15;;;17.30;70.20;;;;;;5048642;28;20028;-65
2022/03/23 08:57:03;;;;;;;16.08;10.73;;;17.30;70.70;;;;;;5043958;28;20029;-64
2022/03/23 08:59:30;;;;;;;11.35;10.20;;;17.40;70.50;;;;;;5043846;28;20089;-65
2022/03/23 09:01:55;;;;;;;15.85;10.68;;;17.50;70.00;;;;;;5045527;28;20375;-65
2022/03/23 09:04:21;;;;;;;14.68;11.30;;;17.50;69.60;;;;;;5043922;28;20033;-64
2022/03/23 09:06:47;;;;;;;13.80;10.93;;;17.40;69.70;;;;;;5039098;28;20033;-64
2022/03/23 09:09:12;;;;;;;13.57;10.38;;;17.50;70.30;;;;;;5047584;28;20072;-64
2022/03/23 09:11:38;;;;;;;13.20;10.25;;;17.60;68.40;;;;;;5048254;28;20426;-64
2022/03/23 09:14:04;;;;;;;11.18;9.85;;;17.70;68.60;;;;;;5041628;28;20026;-66
2022/03/23 09:16:30;;;;;;;18.30;10.77;;;17.80;68.20;;;;;;5038221;28;20391;-64
2022/03/23 09:18:55;;;;;;;13.10;11.07;;;17.70;68.90;;;;;;5049777;28;20029;-63
2022/03/23 09:21:21;;;;;;;11.88;10.13;;;17.80;68.60;;;;;;5053910;28;20161;-63
2022/03/23 09:23:48;;;;;;;13.70;10.93;;;17.80;68.40;;;;;;5052187;28;20029;-62
2022/03/23 09:26:14;;;;;;;10.88;9.35;;;17.90;66.30;;;;;;5046817;28;20060;-63
2022/03/23 09:28:39;;;;;;;11.95;10.10;;;17.80;66.40;;;;;;5041447;28;20056;-64
2022/03/23 09:31:06;;;;;;;14.85;11.02;;;17.70;67.20;;;;;;5048402;28;20098;-63
2022/03/23 09:33:33;;;;;;;15.30;9.82;;;17.80;66.40;;;;;;5042959;28;20459;-63
2022/03/23 09:35:59;;;;;;;16.77;10.38;;;17.80;67.00;;;;;;5051895;28;20138;-63
2022/03/23 09:38:26;;;;;;;16.42;11.02;;;17.80;66.90;;;;;;5043236;28;20017;-61
2022/03/23 09:40:52;;;;;;;14.75;11.20;;;17.90;67.80;;;;;;5039998;28;20045;-63
2022/03/23 09:43:23;;;;;;;15.43;11.30;;;18.00;66.50;;;;;;5045102;28;20429;-64
2022/03/23 09:45:50;;;;;;;11.52;10.32;;;18.10;65.80;;;;;;5045046;28;20090;-63
2022/03/23 09:48:21;;;;;;;12.20;10.73;;;18.10;65.50;;;;;;5044447;28;20044;-64
2022/03/23 09:50:52;;;;;;;13.93;10.70;;;18.10;65.60;;;;;;5048225;28;20021;-63
2022/03/23 09:53:21;;;;;;;17.55;11.38;;;18.20;72.80;;;;;;5047032;28;20028;-63
2022/03/23 09:55:49;;;;;;;13.77;12.32;;;17.60;78.70;;;;;;5041212;28;20026;-63
2022/03/23 09:58:15;;;;;;;14.38;11.73;;;17.10;81.30;;;;;;5044209;28;20052;-62
2022/03/23 10:00:44;;;;;;;15.25;11.48;;;16.80;80.00;;;;;;5042562;28;20029;-61
2022/03/23 10:03:09;;;;;;;15.20;11.18;;;16.70;81.00;;;;;;5046242;28;20251;-63
2022/03/23 10:06:02;;;;;;;21.42;12.63;;;16.60;83.10;;;;;;5043653;28;20060;-64
2022/03/23 10:08:52;;;;;;;18.73;11.90;;;16.70;82.30;;;;;;5045020;28;20017;-63
2022/03/23 10:11:40;;;;;;;14.70;12.38;;;16.80;78.40;;;;;;5045286;28;20052;-62
2022/03/23 10:14:36;;;;;;;16.88;12.18;;;16.70;76.50;;;;;;5040209;28;20026;-64
2022/03/23 10:17:34;;;;;;;15.13;11.65;;;16.70;83.70;;;;;;5046704;28;20399;-65
2022/03/23 10:20:01;;;;;;;17.17;11.70;;;16.70;86.10;;;;;;5045145;28;20090;-63
2022/03/23 10:22:28;;;;;;;18.35;12.55;;;16.60;83.20;;;;;;5044191;28;20064;-63
2022/03/23 10:24:55;;;;;;;13.77;11.50;;;16.70;86.80;;;;;;5047409;28;20056;-62
2022/03/23 10:27:23;;;;;;;14.35;10.00;;;16.60;87.40;;;;;;5042131;28;20029;-63
2022/03/23 10:29:53;;;;;;;13.60;10.82;;;16.50;85.80;;;;;;5034342;28;20018;-62
2022/03/23 10:32:23;;;;;;;16.17;11.02;;;16.50;84.50;;;;;;5032068;28;20040;-63
2022/03/23 10:34:53;;;;;;;12.98;10.60;;;16.40;84.80;;;;;;5039493;28;20045;-63
2022/03/23 10:37:25;;;;;;;14.40;11.23;;;16.50;84.00;;;;;;5042224;28;20040;-63
2022/03/23 10:39:51;;;;;;;13.60;11.20;;;16.60;80.90;;;;;;5042768;28;20025;-63
2022/03/23 10:42:19;;;;;;;12.82;11.38;;;16.50;81.50;;;;;;5044397;28;20411;-62
2022/03/23 10:44:45;;;;;;;12.60;11.30;;;16.40;81.10;;;;;;5040285;28;20116;-62
2022/03/23 10:47:31;;;;;;;12.85;9.85;;;16.50;82.70;;;;;;5041865;28;20041;-63
2022/03/23 10:50:09;;;;;;;17.23;11.23;;;16.60;81.30;;;;;;5040642;28;20025;-63
2022/03/23 10:52:36;;;;;;;14.30;10.52;;;16.80;81.70;;;;;;5045764;28;20036;-62
2022/03/23 10:55:05;;;;;;;15.20;10.43;;;16.90;78.40;;;;;;5042835;28;20074;-63
2022/03/23 10:58:00;;;;;;;18.95;11.23;;;17.00;79.80;;;;;;5042859;28;20045;-62
2022/03/23 11:00:32;;;;;;;13.80;9.98;;;17.20;79.40;;;;;;5025359;28;20076;-61
2022/03/23 11:02:58;;;;;;;;;;;17.10;78.90;;;;;;5040341;28;20029;-63
2022/03/23 11:05:43;;;;;;;12.02;8.77;;;17.00;78.80;;;;;;5043629;28;20355;-62
2022/03/23 11:08:29;;;;;;;13.02;10.02;;;17.00;79.50;;;;;;5044486;28;20028;-64
2022/03/23 11:16:52;;;;;;;11.95;9.70;;;16.90;80.90;;;;;;5040663;28;20040;-63
2022/03/23 11:19:23;;;;;;;11.32;9.85;;;16.90;79.70;;;;;;5047227;28;20025;-63
2022/03/23 11:22:17;;;;;;;10.10;8.70;;;16.80;78.80;;;;;;5049555;28;20029;-64
2022/03/23 11:24:46;;;;;;;14.65;9.20;;;16.80;79.50;;;;;;5036015;28;20032;-63
2022/03/23 11:27:17;;;;;;;13.00;10.02;;;16.80;79.10;;;;;;5046593;28;20761;-63
2022/03/23 11:29:43;;;;;;;24.30;10.60;;;16.80;79.10;;;;;;5046101;28;20036;-63
2022/03/23 11:32:31;;;;;;;12.10;9.15;;;16.90;77.70;;;;;;5042371;28;20028;-63
2022/03/23 11:35:01;;;;;;;13.95;9.55;;;16.90;78.70;;;;;;5046703;28;20120;-63
2022/03/23 11:37:29;;;;;;;10.75;9.52;;;17.10;80.30;;;;;;5040090;28;20071;-63
2022/03/23 11:39:56;;;;;;;12.80;9.18;;;17.10;78.10;;;;;;5039145;28;20029;-63
2022/03/23 11:42:22;;;;;;;22.08;9.68;;;17.20;78.30;;;;;;5047087;28;20502;-62
2022/03/23 11:44:49;;;;;;;14.57;11.88;;;17.20;78.90;;;;;;5038308;28;20087;-64
2022/03/23 11:47:42;;;;;;;11.02;9.40;;;17.10;91.60;;;;;;5043895;28;20025;-62
2022/03/23 11:50:25;;;;;;;17.38;9.85;;;16.90;85.70;;;;;;5042534;28;20040;-62
2022/03/23 11:53:29;;;;;;;18.85;10.45;;;16.80;83.30;;;;;;5044309;28;20029;-61
2022/03/23 11:55:56;;;;;;;22.30;11.32;;;16.50;82.20;;;;;;5027605;28;20096;-62
2022/03/23 11:58:34;;;;;;;18.05;9.73;;;16.40;83.00;;;;;;5037734;28;20032;-63
2022/03/23 12:01:12;;;;;;;14.13;10.63;;;16.40;86.40;;;;;;5042819;28;20124;-62
2022/03/23 12:03:41;;;;;;;13.98;9.27;;;16.50;86.50;;;;;;5043571;28;20021;-62
2022/03/23 12:06:11;;;;;;;13.50;10.05;;;16.70;85.10;;;;;;5042054;28;20037;-63
2022/03/23 12:08:50;;;;;;;19.13;9.18;;;16.80;85.50;;;;;;5032543;28;20033;-63
2022/03/23 12:11:37;;;;;;;16.95;9.63;;;17.00;85.30;;;;;;5040112;28;20036;-63
2022/03/23 12:14:06;;;;;;;11.95;8.55;;;17.00;86.50;;;;;;5033049;28;20021;-61
2022/03/23 12:16:50;;;;;;;10.85;8.65;;;17.00;85.50;;;;;;5038997;28;20029;-63
2022/03/23 12:19:25;;;;;;;9.75;7.85;;;17.10;82.40;;;;;;5043394;28;20245;-62
2022/03/23 12:22:07;;;;;;;14.82;9.02;;;17.20;83.80;;;;;;5044651;28;20017;-63
2022/03/23 12:25:05;;;;;;;10.93;9.80;;;17.20;89.60;;;;;;5042331;28;20112;-61
2022/03/23 12:27:37;;;;;;;10.93;8.15;;;17.30;90.80;;;;;;5040992;28;20117;-62
2022/03/23 12:30:08;;;;;;;;;;;17.30;90.70;;;;;;5040730;28;20541;-63
2022/03/23 12:32:38;;;;;;;12.20;9.32;;;17.40;91.10;;;;;;5039347;28;19943;-63
2022/03/23 12:35:05;;;;;;;12.15;8.70;;;17.50;90.90;;;;;;5038101;28;20486;-61
2022/03/23 12:37:41;;;;;;;10.32;9.13;;;17.50;90.80;;;;;;5044915;28;20075;-62
2022/03/23 12:40:16;;;;;;;13.52;9.13;;;17.40;88.60;;;;;;5042780;28;20033;-64
2022/03/23 12:42:44;;;;;;;11.15;8.80;;;17.30;90.20;;;;;;5042469;28;20479;-62
2022/03/23 12:45:16;;;;;;;11.27;8.75;;;17.40;88.00;;;;;;5041383;28;20037;-60
2022/03/23 12:48:05;;;;;;;11.60;8.93;;;17.20;90.70;;;;;;5048727;28;20463;-64
2022/03/23 12:59:18;;;;;;;13.48;9.15;;;17.10;90.40;;;;;;5039742;28;20036;-62
2022/03/23 13:01:44;;;;;;;10.25;8.90;;;17.00;90.80;;;;;;5044344;28;20479;-63
2022/03/23 13:04:40;;;;;;;15.15;9.15;;;17.00;91.00;;;;;;5042263;28;20029;-62